UAL1806 PHNL-KDEN
Flight info
| Callsign | UAL1806 |
|---|---|
| Flight time | N/A |
| Altitude | 35000 |
| Route | MKK5 CODDY EBBER R577 ETECO DINTY/N0474F370 C1176 RZS PMD DAG KL36M DICEE BUMMP SSKII4 |
| Aircraft | B772/H-SDE2E3FGHIJ5LORVWXY/LB1D1 |
Departure
| Time | 2026-05-05 18:59 |
|---|---|
| Airport | Daniel K. Inouye International Airport (PHNL) |
Arrival
| Time | N/A |
|---|---|
| Airport | Denver International Airport (KDEN) |
| Time | Latitude | Longitude | Altitude | Speed | Heading |
|---|---|---|---|---|---|
| 2026-05-05 18:37 | 21.32960 | -157.92082 | 28 ft | 0 kts | 98° |
| 2026-05-05 18:44 | 21.32960 | -157.92083 | 28 ft | 2 kts | 98° |
| 2026-05-05 18:44 | 21.32963 | -157.92110 | 27 ft | 4 kts | 97° |
| 2026-05-05 18:44 | 21.32967 | -157.92136 | 25 ft | 4 kts | 119° |
| 2026-05-05 18:45 | 21.32984 | -157.92147 | 25 ft | 4 kts | 184° |
| 2026-05-05 18:45 | 21.33008 | -157.92144 | 27 ft | 1 kts | 189° |
| 2026-05-05 18:45 | 21.33013 | -157.92143 | 28 ft | 0 kts | 189° |
| 2026-05-05 18:49 | 21.32996 | -157.92146 | 28 ft | 5 kts | 189° |
| 2026-05-05 18:49 | 21.32965 | -157.92151 | 26 ft | 0 kts | 189° |
| 2026-05-05 18:51 | 21.32934 | -157.92157 | 28 ft | 12 kts | 189° |
| 2026-05-05 18:51 | 21.32860 | -157.92170 | 28 ft | 10 kts | 189° |
| 2026-05-05 18:51 | 21.32799 | -157.92186 | 28 ft | 7 kts | 210° |
| 2026-05-05 18:51 | 21.32781 | -157.92238 | 28 ft | 8 kts | 266° |
| 2026-05-05 18:52 | 21.32777 | -157.92313 | 28 ft | 12 kts | 266° |
| 2026-05-05 18:52 | 21.32771 | -157.92402 | 28 ft | 12 kts | 266° |
| 2026-05-05 18:52 | 21.32776 | -157.92495 | 28 ft | 13 kts | 272° |
| 2026-05-05 18:52 | 21.32775 | -157.92590 | 29 ft | 13 kts | 268° |
| 2026-05-05 18:53 | 21.32773 | -157.92684 | 29 ft | 13 kts | 267° |
| 2026-05-05 18:53 | 21.32754 | -157.92776 | 29 ft | 13 kts | 252° |
| 2026-05-05 18:53 | 21.32743 | -157.92877 | 29 ft | 14 kts | 269° |
| 2026-05-05 18:53 | 21.32741 | -157.92981 | 29 ft | 14 kts | 269° |
| 2026-05-05 18:54 | 21.32743 | -157.93084 | 29 ft | 14 kts | 271° |
| 2026-05-05 18:54 | 21.32744 | -157.93188 | 29 ft | 14 kts | 271° |
| 2026-05-05 18:54 | 21.32744 | -157.93291 | 29 ft | 14 kts | 267° |
| 2026-05-05 18:54 | 21.32741 | -157.93396 | 29 ft | 16 kts | 270° |
| 2026-05-05 18:55 | 21.32742 | -157.93536 | 29 ft | 20 kts | 270° |
| 2026-05-05 18:55 | 21.32742 | -157.93683 | 29 ft | 20 kts | 270° |
| 2026-05-05 18:55 | 21.32742 | -157.93829 | 29 ft | 20 kts | 270° |
| 2026-05-05 18:55 | 21.32743 | -157.93973 | 29 ft | 20 kts | 270° |
| 2026-05-05 18:56 | 21.32691 | -157.94097 | 29 ft | 20 kts | 212° |
| 2026-05-05 18:56 | 21.32574 | -157.94169 | 29 ft | 18 kts | 209° |
| 2026-05-05 18:56 | 21.32532 | -157.94151 | 29 ft | 6 kts | 108° |
| 2026-05-05 18:56 | 21.32529 | -157.94137 | 29 ft | 0 kts | 97° |
| 2026-05-05 18:58 | 21.32528 | -157.94073 | 29 ft | 33 kts | 90° |
| 2026-05-05 18:58 | 21.32526 | -157.93558 | 29 ft | 104 kts | 90° |
| 2026-05-05 18:58 | 21.32526 | -157.92555 | 29 ft | 163 kts | 90° |
| 2026-05-05 18:59 | 21.32520 | -157.91148 | 179 ft | 200 kts | 90° |
| 2026-05-05 18:59 | 21.32508 | -157.89719 | 1149 ft | 184 kts | 92° |
| 2026-05-05 18:59 | 21.32242 | -157.88370 | 1714 ft | 195 kts | 116° |
| 2026-05-05 18:59 | 21.31514 | -157.87093 | 1971 ft | 211 kts | 123° |
| 2026-05-05 19:00 | 21.30697 | -157.85730 | 2290 ft | 223 kts | 119° |
| 2026-05-05 19:00 | 21.29878 | -157.84244 | 2562 ft | 239 kts | 120° |
| 2026-05-05 19:00 | 21.29042 | -157.82654 | 2968 ft | 251 kts | 119° |
| 2026-05-05 19:00 | 21.28181 | -157.80978 | 3413 ft | 262 kts | 119° |
| 2026-05-05 19:01 | 21.26290 | -157.77147 | 4704 ft | 269 kts | 118° |
| 2026-05-05 19:01 | 21.22796 | -157.69849 | 7051 ft | 278 kts | 118° |
| 2026-05-05 19:01 | 21.19198 | -157.62306 | 9118 ft | 290 kts | 118° |
| 2026-05-05 19:01 | 21.16900 | -157.57663 | 10221 ft | 298 kts | 115° |
| 2026-05-05 19:02 | 21.16374 | -157.55482 | 10293 ft | 310 kts | 93° |
| 2026-05-05 19:02 | 21.16346 | -157.53123 | 10413 ft | 325 kts | 91° |
| 2026-05-05 19:02 | 21.16293 | -157.50643 | 10541 ft | 341 kts | 92° |
| 2026-05-05 19:02 | 21.16181 | -157.48047 | 10753 ft | 355 kts | 93° |
| 2026-05-05 19:03 | 21.16024 | -157.45371 | 11140 ft | 364 kts | 94° |
| 2026-05-05 19:03 | 21.15837 | -157.42644 | 11646 ft | 368 kts | 95° |
| 2026-05-05 19:03 | 21.15629 | -157.39821 | 11796 ft | 373 kts | 95° |
| 2026-05-05 19:03 | 21.15005 | -157.31841 | 11818 ft | 375 kts | 95° |
| 2026-05-05 19:04 | 21.14112 | -157.20525 | 13905 ft | 386 kts | 94° |
| 2026-05-05 19:04 | 21.16648 | -157.09379 | 16166 ft | 396 kts | 65° |
| 2026-05-05 19:04 | 21.21118 | -156.98364 | 18271 ft | 411 kts | 66° |
| 2026-05-05 19:04 | 21.25668 | -156.86884 | 19965 ft | 425 kts | 66° |
| 2026-05-05 19:05 | 21.30344 | -156.75056 | 21601 ft | 437 kts | 66° |
| 2026-05-05 19:05 | 21.32034 | -156.70729 | 22129 ft | 442 kts | 68° |
| 2026-05-05 19:05 | 21.32962 | -156.67569 | 22478 ft | 447 kts | 76° |
| 2026-05-05 19:05 | 21.33575 | -156.64290 | 22855 ft | 450 kts | 82° |
| 2026-05-05 19:06 | 21.33867 | -156.60945 | 23245 ft | 452 kts | 86° |
| 2026-05-05 19:06 | 21.34085 | -156.57168 | 23301 ft | 459 kts | 86° |
| 2026-05-05 19:06 | 21.34813 | -156.44386 | 24726 ft | 462 kts | 86° |
| 2026-05-05 19:06 | 21.35664 | -156.30492 | 25973 ft | 473 kts | 86° |
| 2026-05-05 19:07 | 21.36530 | -156.16263 | 27220 ft | 483 kts | 86° |
| 2026-05-05 19:07 | 21.37401 | -156.01729 | 28516 ft | 492 kts | 86° |
| 2026-05-05 19:07 | 21.38273 | -155.86954 | 29738 ft | 501 kts | 86° |
| 2026-05-05 19:07 | 21.39148 | -155.71907 | 30825 ft | 509 kts | 86° |
| 2026-05-05 19:08 | 21.40023 | -155.56627 | 31759 ft | 517 kts | 86° |
| 2026-05-05 19:08 | 21.40895 | -155.41146 | 32626 ft | 523 kts | 86° |
| 2026-05-05 19:08 | 21.41761 | -155.25501 | 33444 ft | 527 kts | 87° |
| 2026-05-05 19:08 | 21.42117 | -155.19019 | 33818 ft | 528 kts | 87° |
| 2026-05-05 19:09 | 21.42333 | -155.15088 | 34080 ft | 527 kts | 86° |
| 2026-05-05 19:09 | 21.42707 | -155.11172 | 34288 ft | 527 kts | 81° |
| 2026-05-05 19:09 | 21.43287 | -155.07286 | 34471 ft | 528 kts | 80° |
| 2026-05-05 19:09 | 21.43897 | -155.03404 | 34656 ft | 528 kts | 80° |
| 2026-05-05 19:10 | 21.44514 | -154.99513 | 34890 ft | 527 kts | 80° |
| 2026-05-05 19:10 | 21.45121 | -154.95644 | 35155 ft | 526 kts | 80° |
| 2026-05-05 19:10 | 21.47049 | -154.82945 | 35220 ft | 533 kts | 81° |
| 2026-05-05 19:11 | 21.48922 | -154.70337 | 35216 ft | 527 kts | 81° |
| 2026-05-05 19:11 | 21.50863 | -154.57234 | 35228 ft | 521 kts | 81° |
| 2026-05-05 19:12 | 21.52212 | -154.48096 | 35162 ft | 520 kts | 81° |